This is the latest recevied weather packets stored in our database for station/object DL7HMX-13. If no packets are shown the sender has not sent any weather packets the latest 1 day(s).
| Time | Temp. | Humidity | Pressure | Rain* | Wind** | Luminosity | Snow |
|---|---|---|---|---|---|---|---|
| 1778013021 | 13.89° C | 93% | 1006.7 hPa | 0 mm | 0.45 m/s, 121° | 0 W/m² | - |
| 1778012423 | 14.44° C | 93% | 1006.5 hPa | 0 mm | 0.89 m/s, 114° | 0 W/m² | - |
| 1778011827 | 14.44° C | 93% | 1006.5 hPa | 0 mm | 1.34 m/s, 139° | 0 W/m² | - |
| 1778011229 | 14.44° C | 92% | 1006.3 hPa | 0.25 mm | 0 m/s | 0 W/m² | - |
| 1778009421 | 15° C | 93% | 1006.2 hPa | 1.02 mm | 0.45 m/s, 100° | 0 W/m² | - |
| 1778008824 | 15° C | 88% | 1006.2 hPa | 1.02 mm | 2.24 m/s, 119° | 0 W/m² | - |
| 1778008226 | 15.56° C | 85% | 1006.4 hPa | 1.02 mm | 1.34 m/s, 162° | 0 W/m² | - |
| 1778007629 | 16.11° C | 82% | 1006.3 hPa | 0.76 mm | 1.34 m/s, 170° | 0 W/m² | - |
| 1778007032 | 16.11° C | 78% | 1006.4 hPa | 0.51 mm | 1.34 m/s, 176° | 0 W/m² | - |
| 1778006418 | 17.78° C | 71% | 1006.2 hPa | 0 mm | 1.34 m/s, 186° | 0 W/m² | - |
| 1778005820 | 18.89° C | 63% | 1006 hPa | 0 mm | 1.34 m/s, 227° | 0 W/m² | - |
| 1778005224 | 19.44° C | 58% | 1005.8 hPa | 0 mm | 2.68 m/s, 265° | 1 W/m² | - |
| 1778004626 | 19.44° C | 56% | 1005.4 hPa | 0 mm | 5.36 m/s, 272° | 2 W/m² | - |
| 1778004025 | 20° C | 55% | 1005.1 hPa | 0 mm | 4.92 m/s, 264° | 5 W/m² | - |
| 1778003432 | 20.56° C | 55% | 1004.8 hPa | 0 mm | 3.13 m/s, 270° | 20 W/m² | - |
| 1778002819 | 20.56° C | 53% | 1004.6 hPa | 0 mm | 4.92 m/s, 280° | 32 W/m² | - |
| 1778002221 | 21.67° C | 49% | 1004.3 hPa | 0 mm | 4.92 m/s, 266° | 38 W/m² | - |
| 1778001624 | 23.89° C | 42% | 1003.6 hPa | 0 mm | 0.89 m/s, 204° | 75 W/m² | - |
| 1778001024 | 23.33° C | 42% | 1003.4 hPa | 0 mm | 0.45 m/s, 141° | 80 W/m² | - |
| 1778000427 | 23.89° C | 41% | 1003.5 hPa | 0 mm | 0.45 m/s, 178° | 56 W/m² | - |
| 1777999829 | 23.89° C | 41% | 1003.4 hPa | 0 mm | 0.89 m/s, 178° | 53 W/m² | - |
| 1777999231 | 23.89° C | 40% | 1003.4 hPa | 0 mm | 0.45 m/s, 152° | 63 W/m² | - |
| 1777998618 | 24.44° C | 40% | 1003.5 hPa | 0 mm | 0 m/s | 73 W/m² | - |
| 1777998021 | 25° C | 38% | 1003.5 hPa | 0 mm | 0 m/s | 101 W/m² | - |
| 1777997419 | 25° C | 36% | 1003.6 hPa | 0 mm | 0.89 m/s, 168° | 119 W/m² | - |
* Rain latest hour (hover to see other rain measurements)
** Current wind speed in m/s (hover to see current wind gust speed)